createdAt,value
2024-03-02T00:00:28.794Z,53.10
2024-03-02T00:02:55.494Z,49.75
2024-03-02T00:05:23.346Z,47.80
2024-03-02T00:07:57.659Z,55.90
2024-03-02T00:10:30.751Z,52.80
2024-03-02T00:12:58.145Z,58.78
2024-03-02T00:15:52.777Z,58.33
2024-03-02T00:18:26.652Z,49.80
2024-03-02T00:20:57.816Z,51.75
2024-03-02T00:23:25.810Z,57.10
2024-03-02T00:25:57.159Z,51.85
2024-03-02T00:28:25.859Z,51.35
2024-03-02T00:30:55.195Z,53.10
2024-03-02T00:33:22.468Z,51.67
2024-03-02T00:35:50.385Z,51.60
2024-03-02T00:38:17.449Z,50.83
2024-03-02T00:40:44.310Z,55.55
2024-03-02T00:43:52.354Z,55.38
2024-03-02T00:46:20.562Z,49.28
2024-03-02T00:48:57.511Z,51.83
2024-03-02T00:51:26.090Z,51.63
2024-03-02T00:53:56.934Z,57.08
2024-03-02T00:56:24.898Z,51.30
2024-03-02T00:58:53.177Z,49.33
2024-03-02T01:01:20.920Z,52.95
2024-03-02T01:03:47.912Z,51.67
2024-03-02T01:06:15.072Z,49.60
2024-03-02T01:08:41.609Z,51.70
2024-03-02T01:11:08.269Z,51.83
2024-03-02T01:13:35.014Z,57.13
2024-03-02T01:16:02.319Z,51.85
2024-03-02T01:18:29.078Z,51.20
2024-03-02T01:20:58.561Z,49.60
2024-03-02T01:23:25.412Z,55.97
2024-03-02T01:25:52.952Z,56.33
2024-03-02T01:28:20.168Z,55.30
2024-03-02T01:30:46.684Z,55.63
2024-03-02T01:33:13.481Z,55.95
2024-03-02T01:35:40.123Z,54.45
2024-03-02T01:38:09.537Z,56.15
2024-03-02T01:40:37.117Z,50.92
2024-03-02T01:43:05.158Z,52.55
2024-03-02T01:45:33.113Z,50.60
2024-03-02T01:47:59.793Z,54.60
2024-03-02T01:50:32.156Z,54.03
2024-03-02T01:52:59.898Z,49.60
2024-03-02T01:55:27.110Z,54.38
2024-03-02T01:57:55.375Z,52.08
2024-03-02T02:00:23.028Z,56.13
2024-03-02T02:02:49.963Z,55.28
2024-03-02T02:05:17.099Z,53.08
2024-03-02T02:07:46.420Z,54.75
2024-03-02T02:10:13.020Z,60.88
2024-03-02T02:12:39.676Z,54.97
2024-03-02T02:15:27.599Z,56.95
2024-03-02T02:17:55.532Z,54.63
2024-03-02T02:20:22.186Z,61.67
2024-03-02T02:23:14.943Z,58.33
2024-03-02T02:25:41.700Z,52.22
2024-03-02T02:28:08.167Z,56.03
2024-03-02T02:30:34.910Z,54.60
2024-03-02T02:33:01.974Z,54.67
2024-03-02T02:35:29.004Z,57.50
2024-03-02T02:37:57.825Z,62.50
2024-03-02T02:40:24.872Z,64.63
2024-03-02T02:42:53.488Z,52.78
2024-03-02T02:45:21.913Z,56.75
2024-03-02T02:47:48.656Z,60.40
2024-03-02T02:50:15.467Z,56.50
2024-03-02T02:52:43.556Z,52.47
2024-03-02T02:55:13.124Z,54.95
2024-03-02T02:57:44.271Z,55.08
2024-03-02T03:00:18.295Z,55.28
2024-03-02T03:02:48.167Z,51.65
2024-03-02T03:05:15.970Z,56.25
2024-03-02T03:07:45.056Z,58.55
2024-03-02T03:10:12.182Z,51.17
2024-03-02T03:12:39.048Z,55.45
2024-03-02T03:15:07.847Z,56.15
2024-03-02T03:17:34.761Z,46.05
2024-03-02T03:20:02.182Z,54.58
2024-03-02T03:22:28.718Z,56.17
2024-03-02T03:24:55.261Z,55.47
2024-03-02T03:27:21.835Z,55.38
2024-03-02T03:29:48.314Z,61.40
2024-03-02T03:32:15.163Z,54.30
2024-03-02T03:34:42.175Z,53.70
2024-03-02T03:37:08.773Z,57.15
2024-03-02T03:39:36.961Z,54.30
2024-03-02T03:42:03.972Z,61.72
2024-03-02T03:44:30.565Z,55.03
2024-03-02T03:46:57.076Z,56.08
2024-03-02T03:49:23.568Z,56.78
2024-03-02T03:51:50.555Z,60.42
2024-03-02T03:54:17.109Z,54.38
2024-03-02T03:56:43.608Z,57.63
2024-03-02T03:59:10.097Z,61.60
2024-03-02T04:01:36.633Z,56.67
2024-03-02T04:04:04.682Z,57.55
2024-03-02T04:06:31.542Z,60.53
2024-03-02T04:08:58.174Z,59.50
2024-03-02T04:11:24.791Z,64.25
2024-03-02T04:13:51.454Z,59.25
2024-03-02T04:16:18.668Z,63.92
2024-03-02T04:18:45.931Z,57.65
2024-03-02T04:21:12.752Z,59.63
2024-03-02T04:23:39.730Z,52.95
2024-03-02T04:26:06.627Z,54.65
2024-03-02T04:28:34.308Z,56.90
2024-03-02T04:31:00.963Z,62.03
2024-03-02T04:33:27.603Z,58.47
2024-03-02T04:35:54.240Z,58.30
2024-03-02T04:38:20.818Z,58.05
2024-03-02T04:40:47.411Z,59.33
2024-03-02T04:43:17.484Z,51.72
2024-03-02T04:45:44.129Z,59.80
2024-03-02T04:48:10.669Z,57.58
2024-03-02T04:50:37.117Z,54.30
2024-03-02T04:53:03.915Z,58.42
2024-03-02T04:55:30.403Z,57.25
2024-03-02T04:57:57.253Z,55.80
2024-03-02T05:00:24.090Z,58.28
2024-03-02T05:02:50.963Z,60.65
2024-03-02T05:05:17.645Z,59.97
2024-03-02T05:07:45.076Z,54.25
2024-03-02T05:10:15.480Z,60.55
2024-03-02T05:12:42.535Z,60.40
2024-03-02T05:15:11.158Z,59.85
2024-03-02T05:17:38.775Z,60.70
2024-03-02T05:20:09.244Z,64.57
2024-03-02T05:22:36.301Z,62.17
2024-03-02T05:25:03.721Z,57.55
2024-03-02T05:27:30.372Z,57.88
2024-03-02T05:29:57.149Z,56.15
2024-03-02T05:32:23.611Z,60.90
2024-03-02T05:34:51.764Z,60.22
2024-03-02T05:37:18.735Z,56.20
2024-03-02T05:39:45.434Z,55.70
2024-03-02T05:42:11.950Z,57.80
2024-03-02T05:44:38.510Z,59.30
2024-03-02T05:47:06.270Z,57.00
2024-03-02T05:49:32.741Z,60.08
2024-03-02T05:51:59.409Z,59.25
2024-03-02T05:54:26.074Z,60.28
2024-03-02T05:56:52.667Z,59.30
2024-03-02T05:59:19.730Z,54.85
2024-03-02T06:01:48.281Z,59.78
2024-03-02T06:04:15.464Z,53.55
2024-03-02T06:09:27.873Z,56.30
2024-03-02T06:11:55.217Z,58.70
2024-03-02T06:14:21.978Z,58.08
2024-03-02T06:16:48.501Z,65.85
2024-03-02T06:19:15.003Z,58.55
2024-03-02T06:21:41.984Z,60.85
2024-03-02T06:24:09.158Z,57.50
2024-03-02T06:26:36.147Z,55.35
2024-03-02T06:31:47.860Z,51.70
2024-03-02T06:34:14.516Z,57.88
2024-03-02T06:39:27.395Z,59.90
2024-03-02T06:44:42.973Z,66.15
2024-03-02T06:47:09.925Z,53.70
2024-03-02T06:49:37.138Z,56.83
2024-03-02T06:52:04.197Z,56.42
2024-03-02T07:27:21.769Z,52.65
2024-03-02T07:36:40.189Z,51.15
2024-03-02T08:26:47.496Z,50.70
2024-03-02T08:45:40.803Z,47.88
2024-03-02T08:50:38.778Z,50.33
2024-03-02T08:53:08.253Z,44.92
2024-03-02T08:55:35.500Z,52.10
2024-03-02T08:58:02.673Z,48.67
2024-03-02T09:00:29.382Z,48.53
2024-03-02T09:02:55.888Z,47.28
2024-03-02T09:05:22.495Z,48.35
2024-03-02T09:07:49.070Z,52.33
2024-03-02T09:10:17.660Z,47.90
2024-03-02T09:12:44.383Z,47.70
2024-03-02T09:15:11.036Z,47.65
2024-03-02T09:17:37.610Z,50.78
2024-03-02T09:20:05.340Z,48.55
2024-03-02T09:22:32.035Z,47.03
2024-03-02T09:25:00.570Z,43.20
2024-03-02T09:27:27.314Z,43.85
2024-03-02T09:29:53.982Z,41.70
2024-03-02T09:32:20.484Z,43.15
2024-03-02T09:35:13.134Z,40.97
2024-03-02T09:37:39.637Z,41.25
2024-03-02T09:40:14.183Z,42.20
2024-03-02T09:42:41.660Z,43.38
2024-03-02T09:46:11.175Z,46.10
2024-03-02T09:53:39.093Z,38.58
2024-03-02T09:57:08.113Z,45.20
2024-03-02T09:59:45.100Z,37.45
2024-03-02T10:06:31.143Z,37.42
2024-03-02T10:09:04.089Z,39.67
2024-03-02T10:11:43.405Z,36.17
2024-03-02T10:17:50.668Z,37.45
2024-03-02T10:21:21.174Z,35.35
2024-03-02T10:24:09.757Z,34.88
2024-03-02T10:26:43.104Z,32.80
2024-03-02T10:29:13.334Z,32.85
2024-03-02T10:34:14.801Z,33.00
2024-03-02T10:36:44.452Z,30.80
2024-03-02T10:39:11.046Z,34.15
2024-03-02T10:41:39.251Z,33.10
2024-03-02T10:44:10.379Z,30.08
2024-03-02T10:46:38.244Z,30.25
2024-03-02T10:49:08.453Z,30.83
2024-03-02T10:51:38.035Z,27.60
2024-03-02T10:54:05.835Z,27.10
2024-03-02T10:56:34.573Z,28.73
2024-03-02T10:59:24.026Z,31.25
2024-03-02T11:01:51.753Z,27.77
2024-03-02T11:04:20.663Z,25.00
2024-03-02T11:06:51.078Z,28.58
2024-03-02T11:09:21.052Z,27.75
2024-03-02T11:11:56.110Z,25.02
2024-03-02T11:14:25.523Z,24.48
2024-03-02T11:16:53.217Z,26.10
2024-03-02T11:19:20.686Z,25.17
2024-03-02T11:21:47.905Z,26.23
2024-03-02T11:24:39.529Z,28.55
2024-03-02T11:27:13.696Z,24.58
2024-03-02T11:29:44.533Z,24.02
2024-03-02T11:32:16.599Z,27.08
2024-03-02T11:34:46.418Z,24.50
2024-03-02T11:37:14.882Z,25.08
2024-03-02T11:39:45.444Z,24.48
2024-03-02T11:42:15.238Z,22.67
2024-03-02T11:44:47.623Z,24.60
2024-03-02T11:47:16.145Z,22.35
2024-03-02T11:49:47.505Z,43.97
2024-03-02T11:52:16.313Z,24.58
2024-03-02T11:54:48.161Z,26.73
2024-03-02T11:57:16.835Z,23.98
2024-03-02T11:59:44.578Z,24.52
2024-03-02T12:02:25.395Z,24.33
2024-03-02T12:04:52.571Z,24.65
2024-03-02T12:07:25.524Z,20.75
2024-03-02T12:10:03.356Z,21.50
2024-03-02T12:12:30.414Z,17.75
2024-03-02T12:14:57.283Z,21.02
2024-03-02T12:17:24.223Z,18.95
2024-03-02T12:19:50.775Z,22.50
2024-03-02T12:22:17.672Z,21.58
2024-03-02T12:24:46.605Z,22.75
2024-03-02T12:27:14.392Z,21.75
2024-03-02T12:29:41.169Z,22.30
2024-03-02T12:32:08.221Z,22.10
2024-03-02T12:34:35.027Z,21.35
2024-03-02T12:37:01.910Z,22.88
2024-03-02T12:39:29.018Z,25.10
2024-03-02T12:41:57.038Z,24.58
2024-03-02T12:44:23.619Z,24.42
2024-03-02T12:46:50.417Z,26.75
2024-03-02T12:49:17.684Z,26.38
2024-03-02T12:51:45.069Z,23.40
2024-03-02T12:54:12.114Z,21.90
2024-03-02T12:56:39.270Z,27.27
2024-03-02T12:59:06.737Z,22.77
2024-03-02T13:01:33.586Z,24.08
2024-03-02T13:04:00.464Z,25.98
2024-03-02T13:06:30.554Z,22.50
2024-03-02T13:11:25.744Z,25.42
2024-03-02T13:13:52.727Z,22.52
2024-03-02T13:16:24.997Z,22.00
2024-03-02T13:18:57.122Z,26.38
2024-03-02T13:21:24.107Z,26.90
2024-03-02T13:23:50.775Z,21.50
2024-03-02T13:26:18.121Z,20.65
2024-03-02T13:28:44.763Z,19.27
2024-03-02T13:31:11.435Z,21.23
2024-03-02T13:33:38.034Z,22.83
2024-03-02T13:36:04.991Z,22.80
2024-03-02T13:38:31.738Z,21.38
2024-03-02T13:40:58.494Z,20.98
2024-03-02T13:43:25.523Z,21.52
2024-03-02T13:45:53.291Z,21.83
2024-03-02T13:48:20.721Z,23.10
2024-03-02T13:50:47.764Z,24.25
2024-03-02T13:53:15.619Z,23.23
2024-03-02T13:55:43.338Z,23.80
2024-03-02T13:58:10.918Z,21.50
2024-03-02T14:00:39.766Z,22.35
2024-03-02T14:03:09.997Z,19.48
2024-03-02T14:05:38.140Z,19.27
2024-03-02T14:08:05.375Z,18.42
2024-03-02T14:10:33.363Z,16.15
2024-03-02T14:13:00.010Z,15.73
2024-03-02T14:15:26.728Z,17.30
2024-03-02T14:17:55.123Z,16.20
2024-03-02T14:20:23.629Z,14.00
2024-03-02T14:22:50.783Z,16.52
2024-03-02T14:25:18.610Z,16.73
2024-03-02T14:30:16.860Z,15.77
2024-03-02T14:32:43.540Z,14.18
2024-03-02T14:35:11.402Z,12.98
2024-03-02T14:37:38.570Z,17.15
2024-03-02T14:40:07.646Z,15.38
2024-03-02T14:42:34.844Z,14.55
2024-03-02T14:45:01.588Z,10.85
2024-03-02T14:47:28.326Z,11.20
2024-03-02T14:49:54.983Z,12.60
2024-03-02T14:52:22.023Z,13.88
2024-03-02T14:54:48.674Z,12.30
2024-03-02T14:57:15.511Z,13.45
2024-03-02T14:59:42.290Z,12.68
2024-03-02T15:02:09.583Z,14.02
2024-03-02T15:04:36.651Z,12.55
2024-03-02T15:07:03.320Z,9.80
2024-03-02T15:09:29.896Z,12.82
2024-03-02T15:11:56.485Z,12.05
2024-03-02T15:14:23.216Z,14.77
2024-03-02T15:16:50.594Z,16.63
2024-03-02T15:19:17.471Z,12.48
2024-03-02T15:21:44.016Z,14.13
2024-03-02T15:24:10.580Z,13.35
2024-03-02T15:26:37.220Z,12.18
2024-03-02T15:29:03.969Z,13.75
2024-03-02T15:31:30.477Z,13.88
2024-03-02T15:33:58.291Z,13.75
2024-03-02T15:36:25.443Z,14.98
2024-03-02T15:38:52.009Z,14.38
2024-03-02T15:41:18.708Z,15.48
2024-03-02T15:43:45.535Z,14.73
2024-03-02T15:46:12.239Z,16.23
2024-03-02T15:48:38.865Z,17.45
2024-03-02T15:51:06.880Z,18.67
2024-03-02T15:53:33.982Z,15.77
2024-03-02T15:56:00.673Z,13.02
2024-03-02T15:58:27.503Z,14.85
2024-03-02T16:00:54.210Z,17.23
2024-03-02T16:03:21.142Z,14.02
2024-03-02T16:05:47.823Z,14.18
2024-03-02T16:08:14.335Z,15.90
2024-03-02T16:10:41.205Z,15.60
2024-03-02T16:13:07.853Z,13.20
2024-03-02T16:15:35.288Z,15.48
2024-03-02T16:18:03.086Z,16.20
2024-03-02T16:20:30.114Z,14.43
2024-03-02T16:22:56.755Z,15.15
2024-03-02T16:25:26.102Z,16.20
2024-03-02T16:27:53.870Z,15.15
2024-03-02T16:30:25.808Z,17.15
2024-03-02T16:32:52.576Z,17.48
2024-03-02T16:35:32.040Z,19.95
2024-03-02T16:37:58.686Z,19.95
2024-03-02T16:43:10.633Z,17.33
2024-03-02T16:45:37.361Z,25.40
2024-03-02T16:48:06.100Z,22.15
2024-03-02T16:50:33.825Z,20.92
2024-03-02T16:53:00.876Z,21.65
2024-03-02T16:55:27.530Z,18.25
2024-03-02T16:57:54.229Z,20.65
2024-03-02T17:00:21.014Z,19.80
2024-03-02T17:02:48.327Z,18.25
2024-03-02T17:05:15.022Z,20.70
2024-03-02T17:07:41.936Z,19.13
2024-03-02T17:10:09.006Z,18.85
2024-03-02T17:12:36.443Z,19.65
2024-03-02T17:15:03.543Z,19.55
2024-03-02T17:17:30.334Z,18.17
2024-03-02T17:19:56.887Z,21.17
2024-03-02T17:22:25.022Z,19.50
2024-03-02T17:24:53.331Z,17.98
2024-03-02T17:27:20.284Z,20.05
2024-03-02T17:29:48.620Z,19.10
2024-03-02T17:32:15.257Z,19.90
2024-03-02T17:34:42.094Z,17.48
2024-03-02T17:37:08.740Z,15.20
2024-03-02T17:39:35.328Z,16.23
2024-03-02T17:42:02.028Z,17.35
2024-03-02T17:44:28.571Z,16.05
2024-03-02T17:46:58.131Z,22.00
2024-03-02T17:49:25.840Z,15.80
2024-03-02T17:51:52.585Z,15.68
2024-03-02T17:54:19.169Z,17.08
2024-03-02T17:56:45.785Z,18.95
2024-03-02T17:59:12.289Z,15.43
2024-03-02T18:01:38.866Z,16.42
2024-03-02T18:04:09.773Z,18.48
2024-03-02T18:06:37.330Z,19.02
2024-03-02T18:09:04.327Z,20.00
2024-03-02T18:11:31.084Z,15.38
2024-03-02T18:13:57.656Z,15.30
2024-03-02T18:16:26.395Z,17.88
2024-03-02T18:18:53.096Z,17.55
2024-03-02T18:21:19.801Z,17.60
2024-03-02T18:23:47.738Z,22.10
2024-03-02T18:26:14.639Z,21.73
2024-03-02T18:28:42.235Z,17.95
2024-03-02T18:31:08.864Z,20.92
2024-03-02T18:33:35.955Z,17.83
2024-03-02T18:36:02.752Z,17.60
2024-03-02T18:38:29.448Z,19.85
2024-03-02T18:40:55.971Z,20.42
2024-03-02T18:43:22.475Z,24.77
2024-03-02T18:45:49.455Z,23.20
2024-03-02T18:48:16.457Z,20.25
2024-03-02T18:50:43.316Z,20.45
2024-03-02T18:53:13.902Z,22.88
2024-03-02T18:55:41.140Z,31.75
2024-03-02T18:58:08.396Z,23.85
2024-03-02T19:00:35.172Z,24.15
2024-03-02T19:03:02.001Z,25.48
2024-03-02T19:05:28.708Z,20.92
2024-03-02T19:07:55.259Z,24.05
2024-03-02T19:10:21.688Z,25.45
2024-03-02T19:12:49.033Z,22.23
2024-03-02T19:15:15.692Z,21.92
2024-03-02T19:17:42.310Z,24.80
2024-03-02T19:20:12.079Z,32.83
2024-03-02T19:25:05.775Z,21.73
2024-03-02T19:27:32.309Z,30.13
2024-03-02T19:29:58.862Z,25.75
2024-03-02T19:32:25.314Z,25.30
2024-03-02T19:34:51.857Z,27.58
2024-03-02T19:37:18.545Z,26.27
2024-03-02T19:39:45.079Z,25.63
2024-03-02T19:42:11.656Z,24.83
2024-03-02T19:44:38.244Z,26.08
2024-03-02T19:47:04.766Z,24.33
2024-03-02T19:49:37.743Z,26.17
2024-03-02T19:53:07.176Z,24.58
2024-03-02T19:56:25.320Z,26.08
2024-03-02T19:59:54.182Z,24.92
2024-03-02T20:06:39.165Z,23.15
2024-03-02T20:10:08.242Z,22.20
2024-03-02T20:12:52.209Z,20.65
2024-03-02T20:20:07.239Z,27.80
2024-03-02T20:23:37.204Z,24.17
2024-03-02T20:26:06.095Z,25.38
2024-03-02T20:28:32.788Z,26.98
2024-03-02T20:30:59.399Z,26.67
2024-03-02T20:33:26.332Z,29.05
2024-03-02T20:35:52.824Z,32.67
2024-03-02T20:38:19.353Z,27.95
2024-03-02T20:40:47.783Z,31.17
2024-03-02T20:43:15.740Z,27.10
2024-03-02T20:45:44.542Z,30.42
2024-03-02T20:48:11.616Z,29.80
2024-03-02T20:50:38.116Z,26.75
2024-03-02T20:53:08.124Z,28.38
2024-03-02T20:55:35.974Z,26.30
2024-03-02T20:58:02.864Z,28.75
2024-03-02T21:00:29.406Z,32.33
2024-03-02T21:02:56.048Z,26.23
2024-03-02T21:05:22.622Z,27.38
2024-03-02T21:07:50.595Z,28.95
2024-03-02T21:10:17.337Z,26.40
2024-03-02T21:12:44.132Z,29.52
2024-03-02T21:15:11.161Z,26.45
2024-03-02T21:17:37.890Z,27.15
2024-03-02T21:20:07.809Z,28.83
2024-03-02T21:22:34.363Z,26.70
2024-03-02T21:25:03.355Z,27.23
2024-03-02T21:27:29.881Z,29.50
2024-03-02T21:29:56.413Z,43.28
2024-03-02T21:32:22.848Z,29.27
2024-03-02T21:34:49.470Z,30.40
2024-03-02T21:37:16.137Z,33.00
2024-03-02T21:39:46.989Z,29.77
2024-03-02T21:42:14.151Z,30.27
2024-03-02T21:44:40.688Z,30.65
2024-03-02T21:47:07.685Z,31.48
2024-03-02T21:49:34.577Z,32.03
2024-03-02T21:53:04.203Z,29.48
2024-03-02T22:15:04.099Z,27.98
2024-03-02T22:17:30.684Z,32.72
2024-03-02T22:19:58.310Z,34.95
2024-03-02T22:22:24.948Z,28.83
2024-03-02T22:24:51.487Z,35.28
2024-03-02T22:27:18.029Z,31.65
2024-03-02T22:29:44.504Z,29.20
2024-03-02T22:32:11.004Z,32.05
2024-03-02T22:34:37.515Z,29.80
2024-03-02T22:37:04.217Z,30.55
2024-03-02T22:39:30.735Z,27.65
2024-03-02T22:41:57.242Z,35.97
2024-03-02T22:44:23.730Z,31.88
2024-03-02T22:46:50.271Z,31.60
2024-03-02T22:49:17.055Z,29.70
2024-03-02T22:51:43.589Z,31.98
2024-03-02T22:54:10.075Z,32.38
2024-03-02T22:56:36.517Z,29.58
2024-03-02T22:59:03.384Z,27.95
2024-03-02T23:01:30.238Z,31.48
2024-03-02T23:03:56.813Z,30.63
2024-03-02T23:06:24.102Z,26.73
2024-03-02T23:08:50.547Z,36.13
2024-03-02T23:11:17.222Z,29.45
2024-03-02T23:13:43.747Z,32.03
2024-03-02T23:16:10.286Z,34.03
2024-03-02T23:18:36.843Z,29.17
2024-03-02T23:21:04.181Z,33.60
2024-03-02T23:23:30.588Z,31.40
2024-03-02T23:25:57.115Z,28.73
2024-03-02T23:28:23.610Z,33.20
2024-03-02T23:30:50.232Z,33.40
2024-03-02T23:33:16.788Z,34.67
2024-03-02T23:35:43.370Z,31.08
2024-03-02T23:38:09.900Z,36.53
2024-03-02T23:41:08.537Z,33.80
2024-03-02T23:43:36.697Z,31.38
2024-03-02T23:46:04.630Z,32.13
2024-03-02T23:48:31.159Z,31.75
2024-03-02T23:50:57.610Z,32.08
2024-03-02T23:53:24.122Z,30.23
2024-03-02T23:55:52.865Z,32.97
2024-03-02T23:58:20.498Z,30.38
